Enroute Instrument Rating: EIR(A)

Flugschule

Flugschule

Wir bieten eine professionelle und umfassende Ausbildung.

Flugwetter Augsburg

[Quelle: ADDS]
METAR
EDMA 160420Z AUTO 28005KT 9999 // OVC047/// M03/M04 Q1025 =
EDMA 151700Z 1518/1603 30004KT 9999 FEW010 BKN035 TEMPO 1518/1601 3500 -SN BKN008 TEMPO 1601/1603 BKN010
TAF
EDMA 151700Z 1518/1603 30004KT 9999 FEW010 BKN035 TEMPO 1518/1601 3500 -SN BKN008 TEMPO 1601/1603 BKN010 =

Kontakt

Basic Instrument Rating - BIR (A)

- Text folgt -